Terminal Aerodrome Forecast
Issued by NWS Louisville, KY

Home | Current Version | Previous Version | Text Only | Print | Product List | Glossary On
Versions: 1 2 3 4 5 6 7 8 9 10 11 12 13 14
000
FTUS43 KLMK 290520
TAFBWG
TAF
KBWG 290520Z 2906/3006 VRB04KT P6SM SCT250
      TEMPO 2909/2913 5SM BR
     FM291500 24006KT P6SM BKN200
     FM292200 30004KT P6SM SCT250=

USA.gov is the U.S. government's official web portal to all federal, state and local government web resources and services.